Главная страница
METAR-TAF:

METAR-TAF

Аэропорты :

Корор, Бабелтуап, Палау

широта: 07-22N, долгота: 134-32E, высота над уровнем моря: 54 м

Текущие метеонаблюдения

Эта сводка был подготовлена 45 минут назад, в 09:50 UTC
Ветер 8 Узел от западный-юго-западный
Температура 27°C
Влажность 79%
Давление 1007 hPa
Видимость: 22.5 км
небольшая облачность на высоте 1600 фута
Отдельные облака на высоте 12000 фута
Сплошная облачность на высоте 30000 фута

METAR: PTRO 160950Z 25008KT 14SM FEW016 SCT120 OVC300 27/23 A2975

Время: 19:35 (10:35 UTC)

Прогноз

Эта сводка был подготовлена 14 минут назад, в 10:21 UTC
Прогноз действительный с 16-го 10 UTC до 17-го 06 UTC
Ветер 11 Узел от западный-юго-западный
Видимость: 10 км
небольшая облачность на высоте 1000 фута
Отдельные облака на высоте 1600 фута
Рассеянная облачность на высоте 12000 фута
ливни в окрестностях

TAF: PTRO 161021Z 1610/1706 24011KT P6SM VCSH FEW010 SCT016 BKN120

Метеонаблюдения и прогнозы для более 4000 аэропортов (сводки METAR и TAF).

Имеющиеся станции представлены на карте желтыми и красными точками.

Чтобы увидеть название станции, наведите на нее мышь.

Затем щелкните, чтобы увидеть метеонаблюдения и метеопрогнозы.

Управление картой: чтобы увеличить масштаб, щелкните зеленые кнопки с черным крестиком; чтобы уменьшить масштаб, щелкните зеленую кнопку с тире; для просмотра соседних карт щелкайте зеленые стрелки.


METAR-TAF: